createdAt,value
2019-05-22T00:01:46.105Z,54.70
2019-05-22T00:04:19.372Z,63.70
2019-05-22T00:06:53.371Z,67.40
2019-05-22T00:09:31.761Z,60.40
2019-05-22T00:12:04.049Z,68.70
2019-05-22T00:14:37.990Z,75.67
2019-05-22T00:17:11.009Z,56.77
2019-05-22T00:19:43.820Z,64.43
2019-05-22T00:22:21.055Z,62.33
2019-05-22T00:24:53.208Z,62.37
2019-05-22T00:27:29.424Z,57.07
2019-05-22T00:30:02.097Z,59.60
2019-05-22T00:32:36.239Z,53.63
2019-05-22T00:35:10.366Z,48.47
2019-05-22T00:37:42.966Z,53.47
2019-05-22T00:40:17.122Z,50.80
2019-05-22T00:43:03.418Z,52.10
2019-05-22T00:45:29.748Z,56.57
2019-05-22T00:48:04.352Z,57.60
2019-05-22T00:50:46.230Z,63.60
2019-05-22T00:53:29.269Z,68.00
2019-05-22T00:56:05.845Z,63.77
2019-05-22T00:58:40.138Z,60.63
2019-05-22T01:01:19.212Z,61.73
2019-05-22T01:03:50.986Z,63.53
2019-05-22T01:06:24.227Z,50.90
2019-05-22T01:08:57.202Z,60.97
2019-05-22T01:11:32.318Z,52.67
2019-05-22T01:14:05.110Z,50.83
2019-05-22T01:16:37.130Z,44.27
2019-05-22T01:19:09.399Z,42.70
2019-05-22T01:21:41.766Z,49.57
2019-05-22T01:24:15.505Z,49.13
2019-05-22T01:26:51.436Z,51.03
2019-05-22T01:29:23.740Z,43.13
2019-05-22T01:32:17.825Z,49.27
2019-05-22T01:34:50.987Z,48.50
2019-05-22T01:37:24.215Z,48.43
2019-05-22T01:39:59.826Z,46.73
2019-05-22T01:42:37.243Z,50.00
2019-05-22T01:45:10.150Z,49.70
2019-05-22T01:47:46.582Z,45.83
2019-05-22T01:50:22.231Z,45.17
2019-05-22T01:52:55.718Z,48.23
2019-05-22T01:55:27.505Z,46.57
2019-05-22T01:58:00.182Z,40.73
2019-05-22T02:00:32.974Z,38.93
2019-05-22T02:03:06.810Z,43.73
2019-05-22T02:05:39.330Z,41.67
2019-05-22T02:08:13.005Z,31.87
2019-05-22T02:10:46.511Z,31.10
2019-05-22T02:13:26.295Z,25.27
2019-05-22T02:15:58.047Z,21.80
2019-05-22T02:18:31.522Z,21.67
2019-05-22T02:21:04.546Z,19.97
2019-05-22T02:23:38.046Z,20.00
2019-05-22T02:26:11.890Z,18.60
2019-05-22T02:28:44.887Z,18.33
2019-05-22T02:31:19.901Z,15.27
2019-05-22T02:34:06.224Z,17.73
2019-05-22T02:36:42.469Z,17.43
2019-05-22T02:39:19.516Z,19.97
2019-05-22T02:41:53.968Z,15.30
2019-05-22T02:44:27.442Z,17.80
2019-05-22T02:47:17.048Z,20.70
2019-05-22T02:49:34.435Z,19.00
2019-05-22T02:52:07.341Z,26.20
2019-05-22T02:54:38.710Z,24.80
2019-05-22T02:57:12.802Z,18.93
2019-05-22T02:59:44.208Z,17.57
2019-05-22T03:02:17.343Z,20.57
2019-05-22T03:05:11.404Z,20.70
2019-05-22T03:07:48.845Z,15.87
2019-05-22T03:10:20.906Z,17.67
2019-05-22T03:12:55.304Z,18.17
2019-05-22T03:15:31.693Z,14.70
2019-05-22T03:18:07.316Z,18.80
2019-05-22T03:20:45.096Z,17.97
2019-05-22T03:23:37.113Z,11.43
2019-05-22T03:26:10.726Z,18.33
2019-05-22T03:28:42.311Z,16.33
2019-05-22T03:31:16.403Z,16.10
2019-05-22T03:33:48.974Z,17.10
2019-05-22T03:36:21.634Z,14.67
2019-05-22T03:38:54.831Z,17.80
2019-05-22T03:41:27.267Z,18.63
2019-05-22T03:43:58.958Z,19.00
2019-05-22T03:46:32.235Z,15.17
2019-05-22T03:49:05.553Z,18.27
2019-05-22T03:51:38.110Z,18.77
2019-05-22T03:54:10.702Z,16.07
2019-05-22T03:56:43.314Z,17.03
2019-05-22T03:59:15.575Z,17.40
2019-05-22T04:01:47.462Z,18.90
2019-05-22T04:04:21.653Z,12.53
2019-05-22T04:06:53.251Z,14.67
2019-05-22T04:09:28.136Z,15.03
2019-05-22T04:12:01.123Z,16.83
2019-05-22T04:14:39.456Z,17.37
2019-05-22T04:17:12.465Z,13.33
2019-05-22T04:19:51.004Z,17.10
2019-05-22T04:22:21.353Z,12.77
2019-05-22T04:24:55.618Z,17.00
2019-05-22T04:27:29.453Z,22.93
2019-05-22T04:30:02.874Z,17.50
2019-05-22T04:32:36.620Z,18.53
2019-05-22T04:35:11.218Z,15.93
2019-05-22T04:37:48.064Z,15.73
2019-05-22T04:40:27.529Z,15.70
2019-05-22T04:43:03.340Z,15.87
2019-05-22T04:45:35.235Z,16.40
2019-05-22T04:48:07.919Z,19.70
2019-05-22T04:50:40.277Z,21.10
2019-05-22T04:53:13.375Z,25.57
2019-05-22T04:55:45.883Z,23.73
2019-05-22T04:58:26.752Z,27.17
2019-05-22T05:00:59.652Z,27.73
2019-05-22T05:03:32.142Z,29.63
2019-05-22T05:06:06.657Z,29.47
2019-05-22T05:08:40.813Z,31.73
2019-05-22T05:11:13.204Z,32.20
2019-05-22T05:13:44.417Z,24.40
2019-05-22T05:16:19.402Z,19.67
2019-05-22T05:18:50.977Z,21.20
2019-05-22T05:21:24.110Z,21.53
2019-05-22T05:23:56.288Z,19.47
2019-05-22T05:26:29.614Z,16.10
2019-05-22T05:29:02.643Z,18.60
2019-05-22T05:31:34.612Z,15.37
2019-05-22T05:34:12.110Z,15.53
2019-05-22T05:36:45.386Z,14.63
2019-05-22T05:39:39.219Z,19.40
2019-05-22T05:42:11.098Z,17.17
2019-05-22T05:44:42.664Z,19.30
2019-05-22T05:47:14.946Z,19.23
2019-05-22T05:49:48.306Z,17.70
2019-05-22T05:52:19.767Z,16.33
2019-05-22T05:54:52.222Z,15.10
2019-05-22T05:57:34.445Z,16.07
2019-05-22T06:00:13.342Z,20.20
2019-05-22T06:02:56.212Z,16.70
2019-05-22T06:05:20.042Z,17.60
2019-05-22T06:07:52.590Z,15.20
2019-05-22T06:10:30.782Z,18.50
2019-05-22T06:13:04.009Z,18.57
2019-05-22T06:15:47.429Z,18.73
2019-05-22T06:18:33.263Z,21.27
2019-05-22T06:21:10.560Z,23.67
2019-05-22T06:23:44.701Z,23.83
2019-05-22T06:26:23.911Z,25.57
2019-05-22T06:28:59.175Z,22.67
2019-05-22T06:31:41.422Z,17.43
2019-05-22T06:34:12.136Z,22.13
2019-05-22T06:36:44.922Z,24.57
2019-05-22T06:39:17.566Z,22.03
2019-05-22T06:41:51.019Z,22.80
2019-05-22T06:44:31.421Z,21.27
2019-05-22T06:47:05.812Z,20.57
2019-05-22T06:49:40.008Z,22.23
2019-05-22T06:52:11.961Z,23.20
2019-05-22T06:54:44.203Z,20.97
2019-05-22T06:57:18.373Z,23.90
2019-05-22T07:00:11.556Z,28.57
2019-05-22T07:02:26.407Z,22.07
2019-05-22T07:04:59.519Z,23.43
2019-05-22T07:07:33.210Z,25.83
2019-05-22T07:10:07.274Z,19.63
2019-05-22T07:12:39.898Z,18.50
2019-05-22T07:15:15.376Z,15.87
2019-05-22T07:17:49.539Z,15.33
2019-05-22T07:20:23.482Z,14.20
2019-05-22T07:22:55.948Z,14.83
2019-05-22T07:25:29.601Z,13.53
2019-05-22T07:28:01.693Z,14.23
2019-05-22T07:30:34.742Z,14.37
2019-05-22T07:33:07.727Z,15.67
2019-05-22T07:36:04.828Z,11.20
2019-05-22T07:38:17.432Z,12.37
2019-05-22T07:40:51.585Z,14.37
2019-05-22T07:43:24.772Z,10.77
2019-05-22T07:45:57.608Z,12.87
2019-05-22T07:48:32.518Z,12.83
2019-05-22T07:51:06.088Z,10.17
2019-05-22T07:53:37.583Z,12.90
2019-05-22T07:56:10.922Z,13.67
2019-05-22T07:58:45.330Z,12.13
2019-05-22T08:01:18.594Z,12.60
2019-05-22T08:03:52.304Z,13.07
2019-05-22T08:06:25.791Z,10.90
2019-05-22T08:08:59.910Z,11.97
2019-05-22T08:11:34.690Z,11.67
2019-05-22T08:14:07.173Z,10.07
2019-05-22T08:16:40.330Z,9.33
2019-05-22T08:19:11.939Z,11.07
2019-05-22T08:21:44.826Z,11.33
2019-05-22T08:24:17.621Z,12.50
2019-05-22T08:26:54.349Z,12.73
2019-05-22T08:29:22.849Z,12.67
2019-05-22T08:31:55.690Z,12.73
2019-05-22T08:34:28.662Z,14.93
2019-05-22T08:37:03.365Z,13.13
2019-05-22T08:39:38.059Z,12.77
2019-05-22T08:42:13.640Z,11.50
2019-05-22T08:44:45.679Z,11.13
2019-05-22T08:47:17.439Z,11.57
2019-05-22T08:49:48.992Z,12.97
2019-05-22T08:52:23.925Z,11.83
2019-05-22T08:54:55.354Z,9.77
2019-05-22T08:57:27.891Z,12.13
2019-05-22T08:59:59.001Z,12.60
2019-05-22T09:02:30.843Z,11.73
2019-05-22T09:05:03.150Z,14.00
2019-05-22T09:07:36.965Z,10.33
2019-05-22T09:10:09.928Z,10.50
2019-05-22T09:12:42.875Z,15.17
2019-05-22T09:15:15.791Z,12.10
2019-05-22T09:17:49.342Z,13.67
2019-05-22T09:20:23.215Z,11.53
2019-05-22T09:22:55.804Z,13.07
2019-05-22T09:25:30.415Z,13.60
2019-05-22T09:28:04.840Z,12.00
2019-05-22T09:30:36.350Z,12.60
2019-05-22T09:33:08.962Z,20.10
2019-05-22T09:35:39.775Z,12.40
2019-05-22T09:38:11.380Z,12.30
2019-05-22T09:40:42.956Z,13.93
2019-05-22T09:43:17.109Z,14.20
2019-05-22T09:45:50.895Z,11.20
2019-05-22T09:48:23.381Z,13.37
2019-05-22T09:50:55.738Z,12.30
2019-05-22T09:53:28.703Z,11.13
2019-05-22T09:56:02.635Z,15.13
2019-05-22T09:58:34.894Z,13.17
2019-05-22T10:01:11.521Z,11.80
2019-05-22T10:03:43.018Z,14.37
2019-05-22T10:06:16.162Z,13.33
2019-05-22T10:08:48.670Z,11.33
2019-05-22T10:11:21.479Z,12.87
2019-05-22T10:13:53.214Z,13.33
2019-05-22T10:16:26.752Z,10.87
2019-05-22T10:18:59.468Z,10.53
2019-05-22T10:21:33.236Z,10.07
2019-05-22T10:24:06.277Z,11.33
2019-05-22T10:26:38.180Z,11.63
2019-05-22T10:29:13.426Z,13.40
2019-05-22T10:31:45.413Z,9.53
2019-05-22T10:34:16.891Z,10.97
2019-05-22T10:36:49.535Z,11.50
2019-05-22T10:39:24.833Z,12.43
2019-05-22T10:41:58.062Z,12.83
2019-05-22T10:44:31.762Z,12.77
2019-05-22T10:47:05.057Z,10.87
2019-05-22T10:49:38.612Z,12.07
2019-05-22T10:52:11.216Z,12.60
2019-05-22T10:54:42.634Z,12.33
2019-05-22T10:57:16.639Z,10.93
2019-05-22T10:59:48.581Z,10.60
2019-05-22T11:02:20.839Z,10.67
2019-05-22T11:04:53.330Z,12.80
2019-05-22T11:07:26.060Z,9.53
2019-05-22T11:10:01.176Z,9.40
2019-05-22T11:12:33.675Z,11.27
2019-05-22T11:15:09.227Z,9.47
2019-05-22T11:17:43.359Z,10.17
2019-05-22T11:20:18.778Z,9.57
2019-05-22T11:22:51.759Z,8.87
2019-05-22T11:25:24.296Z,12.87
2019-05-22T11:27:59.911Z,9.97
2019-05-22T11:30:32.231Z,10.17
2019-05-22T11:33:04.277Z,10.30
2019-05-22T11:35:37.184Z,13.10
2019-05-22T11:38:12.190Z,9.73
2019-05-22T11:40:46.573Z,10.87
2019-05-22T11:43:18.434Z,10.50
2019-05-22T11:45:51.629Z,11.53
2019-05-22T11:48:26.214Z,11.03
2019-05-22T11:51:00.976Z,11.33
2019-05-22T11:53:33.423Z,11.27
2019-05-22T11:56:05.893Z,10.90
2019-05-22T11:58:38.391Z,11.30
2019-05-22T12:01:10.994Z,12.60
2019-05-22T12:03:42.997Z,10.90
2019-05-22T12:06:17.150Z,11.83
2019-05-22T12:08:50.179Z,11.90
2019-05-22T12:11:22.120Z,11.43
2019-05-22T12:13:54.254Z,13.37
2019-05-22T12:16:28.726Z,13.33
2019-05-22T12:19:00.938Z,12.30
2019-05-22T12:21:32.386Z,11.00
2019-05-22T12:24:05.759Z,12.87
2019-05-22T12:26:38.146Z,11.90
2019-05-22T12:29:10.625Z,12.30
2019-05-22T12:31:43.161Z,11.57
2019-05-22T12:34:15.087Z,14.70
2019-05-22T12:36:51.222Z,13.67
2019-05-22T12:39:25.121Z,11.80
2019-05-22T12:41:57.926Z,10.63
2019-05-22T12:44:32.304Z,13.70
2019-05-22T12:47:04.279Z,10.73
2019-05-22T12:49:37.664Z,11.00
2019-05-22T12:52:10.399Z,10.57
2019-05-22T12:54:48.273Z,12.83
2019-05-22T12:57:18.688Z,10.57
2019-05-22T12:59:52.279Z,10.57
2019-05-22T13:02:24.799Z,10.87
2019-05-22T13:04:58.209Z,9.87
2019-05-22T13:07:31.178Z,11.00
2019-05-22T13:10:03.188Z,10.33
2019-05-22T13:12:36.541Z,10.07
2019-05-22T13:15:10.995Z,13.30
2019-05-22T13:17:45.938Z,9.70
2019-05-22T13:20:40.538Z,10.07
2019-05-22T13:22:55.612Z,12.40
2019-05-22T13:25:29.038Z,12.27
2019-05-22T13:28:01.113Z,9.20
2019-05-22T13:30:34.087Z,10.03
2019-05-22T13:33:06.503Z,8.77
2019-05-22T13:35:39.934Z,9.37
2019-05-22T13:38:12.931Z,9.83
2019-05-22T13:40:46.170Z,9.80
2019-05-22T13:43:18.439Z,9.67
2019-05-22T13:45:49.934Z,10.33
2019-05-22T13:48:21.482Z,11.57
2019-05-22T13:50:53.021Z,10.37
2019-05-22T13:53:25.635Z,11.23
2019-05-22T13:55:57.617Z,10.70
2019-05-22T13:58:29.669Z,11.53
2019-05-22T14:01:01.878Z,10.80
2019-05-22T14:03:33.105Z,11.97
2019-05-22T14:06:05.259Z,10.27
2019-05-22T14:08:36.951Z,9.43
2019-05-22T14:11:09.167Z,8.77
2019-05-22T14:13:42.776Z,9.80
2019-05-22T14:16:15.174Z,10.33
2019-05-22T14:18:46.904Z,11.17
2019-05-22T14:21:18.259Z,9.77
2019-05-22T14:23:54.534Z,11.50
2019-05-22T14:26:29.941Z,9.40
2019-05-22T14:29:01.608Z,8.53
2019-05-22T14:31:34.847Z,7.67
2019-05-22T14:34:06.568Z,7.43
2019-05-22T14:36:37.926Z,6.90
2019-05-22T14:39:09.059Z,7.87
2019-05-22T14:41:45.475Z,10.87
2019-05-22T14:44:18.282Z,11.13
2019-05-22T14:46:53.259Z,12.07
2019-05-22T14:49:25.717Z,13.97
2019-05-22T14:51:57.098Z,11.23
2019-05-22T14:54:28.956Z,9.03
2019-05-22T14:57:01.133Z,12.03
2019-05-22T14:59:36.558Z,10.57
2019-05-22T15:02:11.430Z,9.67
2019-05-22T15:04:45.535Z,11.90
2019-05-22T15:07:18.185Z,12.90
2019-05-22T15:09:49.177Z,10.50
2019-05-22T15:12:23.934Z,10.23
2019-05-22T15:14:57.284Z,13.23
2019-05-22T15:17:32.865Z,8.27
2019-05-22T15:20:02.396Z,10.23
2019-05-22T15:22:33.872Z,12.87
2019-05-22T15:25:07.590Z,7.87
2019-05-22T15:27:40.011Z,10.43
2019-05-22T15:30:12.666Z,10.97
2019-05-22T15:32:44.846Z,11.03
2019-05-22T15:35:20.397Z,9.03
2019-05-22T15:37:54.152Z,9.00
2019-05-22T15:40:29.211Z,10.47
2019-05-22T15:43:01.376Z,10.33
2019-05-22T15:45:32.555Z,10.23
2019-05-22T15:48:08.492Z,12.93
2019-05-22T15:50:41.518Z,11.50
2019-05-22T15:53:15.217Z,9.97
2019-05-22T15:55:49.001Z,11.50
2019-05-22T15:58:22.066Z,10.73
2019-05-22T16:00:56.666Z,10.40
2019-05-22T16:03:30.509Z,11.20
2019-05-22T16:06:03.436Z,8.63
2019-05-22T16:08:36.274Z,11.23
2019-05-22T16:11:09.858Z,10.07
2019-05-22T16:13:42.934Z,9.40
2019-05-22T16:16:18.059Z,11.20
2019-05-22T16:18:56.687Z,11.13
2019-05-22T16:21:28.230Z,11.67
2019-05-22T16:24:01.135Z,11.23
2019-05-22T16:26:35.114Z,10.97
2019-05-22T16:29:09.185Z,11.13
2019-05-22T16:31:46.291Z,13.00
2019-05-22T16:34:19.022Z,12.87
2019-05-22T16:36:49.679Z,11.53
2019-05-22T16:39:23.030Z,12.10
2019-05-22T16:41:55.795Z,11.77
2019-05-22T16:44:27.692Z,10.67
2019-05-22T16:47:01.218Z,11.23
2019-05-22T16:49:36.409Z,11.27
2019-05-22T16:52:10.911Z,11.13
2019-05-22T16:54:44.282Z,10.13
2019-05-22T16:57:16.726Z,9.20
2019-05-22T16:59:49.434Z,11.53
2019-05-22T17:02:22.642Z,12.43
2019-05-22T17:04:55.190Z,12.40
2019-05-22T17:07:28.426Z,12.10
2019-05-22T17:10:00.750Z,11.10
2019-05-22T17:12:34.201Z,12.03
2019-05-22T17:15:09.899Z,13.60
2019-05-22T17:17:42.321Z,10.23
2019-05-22T17:20:14.710Z,11.23
2019-05-22T17:22:47.214Z,10.90
2019-05-22T17:25:21.072Z,10.60
2019-05-22T17:27:53.310Z,11.80
2019-05-22T17:30:26.956Z,12.30
2019-05-22T17:32:59.706Z,10.13
2019-05-22T17:35:32.267Z,10.33
2019-05-22T17:38:05.371Z,10.57
2019-05-22T17:40:38.954Z,11.00
2019-05-22T17:43:12.482Z,11.17
2019-05-22T17:45:45.470Z,10.83
2019-05-22T17:48:16.867Z,12.00
2019-05-22T17:50:49.174Z,11.40
2019-05-22T17:53:23.108Z,12.57
2019-05-22T17:55:54.870Z,11.53
2019-05-22T17:58:29.965Z,11.30
2019-05-22T18:01:01.146Z,9.80
2019-05-22T18:03:34.205Z,12.17
2019-05-22T18:06:10.343Z,11.67
2019-05-22T18:08:42.069Z,10.97
2019-05-22T18:11:13.187Z,9.10
2019-05-22T18:13:49.773Z,11.17
2019-05-22T18:16:21.227Z,11.50
2019-05-22T18:18:52.150Z,11.17
2019-05-22T18:21:23.290Z,12.57
2019-05-22T18:23:55.204Z,9.70
2019-05-22T18:26:26.455Z,8.47
2019-05-22T18:28:58.891Z,8.97
2019-05-22T18:31:32.528Z,9.00
2019-05-22T18:34:04.580Z,11.07
2019-05-22T18:36:37.274Z,8.20
2019-05-22T18:39:11.763Z,11.47
2019-05-22T18:41:45.903Z,8.83
2019-05-22T18:44:17.270Z,8.13
2019-05-22T18:46:49.724Z,8.70
2019-05-22T18:49:21.366Z,8.50
2019-05-22T18:51:52.899Z,8.57
2019-05-22T18:54:24.666Z,9.87
2019-05-22T18:56:58.008Z,8.60
2019-05-22T18:59:30.974Z,9.37
2019-05-22T19:02:06.096Z,8.03
2019-05-22T19:04:39.148Z,9.70
2019-05-22T19:07:14.031Z,9.00
2019-05-22T19:09:46.605Z,8.97
2019-05-22T19:12:18.365Z,8.90
2019-05-22T19:14:50.049Z,9.97
2019-05-22T19:17:21.002Z,9.47
2019-05-22T19:19:52.091Z,12.07
2019-05-22T19:22:25.471Z,10.23
2019-05-22T19:24:58.268Z,9.80
2019-05-22T19:27:30.304Z,11.17
2019-05-22T19:30:02.175Z,11.53
2019-05-22T19:32:33.747Z,13.53
2019-05-22T19:35:12.331Z,11.87
2019-05-22T19:37:47.606Z,11.03
2019-05-22T19:40:20.654Z,13.53
2019-05-22T19:42:52.186Z,12.07
2019-05-22T19:45:23.643Z,15.00
2019-05-22T19:48:00.236Z,12.63
2019-05-22T19:50:33.934Z,12.33
2019-05-22T19:53:18.585Z,10.33
2019-05-22T19:55:42.241Z,12.40
2019-05-22T19:58:14.050Z,15.97
2019-05-22T20:00:47.470Z,17.47
2019-05-22T20:03:19.795Z,12.83
2019-05-22T20:05:51.609Z,15.30
2019-05-22T20:08:23.698Z,13.43
2019-05-22T20:10:55.570Z,15.83
2019-05-22T20:13:28.314Z,15.13
2019-05-22T20:16:00.892Z,14.73
2019-05-22T20:18:33.615Z,13.70
2019-05-22T20:21:06.266Z,12.43
2019-05-22T20:23:37.846Z,15.83
2019-05-22T20:26:11.930Z,14.07
2019-05-22T20:28:44.393Z,15.13
2019-05-22T20:31:16.623Z,15.07
2019-05-22T20:33:49.424Z,21.37
2019-05-22T20:36:21.230Z,21.40
2019-05-22T20:38:56.300Z,22.97
2019-05-22T20:41:29.163Z,23.30
2019-05-22T20:44:01.890Z,20.80
2019-05-22T20:46:37.789Z,23.53
2019-05-22T20:49:09.683Z,23.30
2019-05-22T20:51:43.346Z,23.20
2019-05-22T20:54:15.807Z,26.67
2019-05-22T20:56:50.942Z,24.77
2019-05-22T20:59:26.028Z,27.27
2019-05-22T21:01:59.758Z,20.37
2019-05-22T21:04:34.811Z,22.47
2019-05-22T21:07:07.786Z,23.33
2019-05-22T21:09:43.655Z,23.00
2019-05-22T21:12:16.250Z,24.17
2019-05-22T21:14:48.760Z,28.23
2019-05-22T21:17:20.529Z,27.67
2019-05-22T21:19:53.005Z,26.00
2019-05-22T21:22:25.127Z,23.23
2019-05-22T21:24:59.974Z,24.13
2019-05-22T21:27:32.928Z,24.40
2019-05-22T21:30:06.986Z,27.40
2019-05-22T21:32:40.090Z,24.10
2019-05-22T21:35:15.514Z,25.93
2019-05-22T21:37:48.821Z,29.37
2019-05-22T21:40:24.693Z,24.30
2019-05-22T21:42:57.852Z,30.03
2019-05-22T21:45:31.634Z,29.30
2019-05-22T21:48:04.942Z,28.37
2019-05-22T21:50:37.378Z,29.10
2019-05-22T21:53:11.314Z,28.87
2019-05-22T21:55:45.773Z,32.23
2019-05-22T21:58:18.910Z,30.63
2019-05-22T22:00:59.619Z,29.23
2019-05-22T22:03:41.669Z,31.03
2019-05-22T22:06:15.628Z,31.07
2019-05-22T22:08:49.676Z,33.00
2019-05-22T22:11:27.086Z,34.67
2019-05-22T22:14:01.279Z,32.23
2019-05-22T22:16:34.378Z,32.07
2019-05-22T22:19:09.056Z,30.70
2019-05-22T22:21:41.692Z,29.20
2019-05-22T22:24:14.335Z,31.03
2019-05-22T22:26:48.585Z,29.93
2019-05-22T22:29:21.287Z,31.90
2019-05-22T22:31:55.061Z,32.07
2019-05-22T22:34:32.770Z,33.60
2019-05-22T22:37:04.758Z,31.97
2019-05-22T22:39:38.434Z,37.67
2019-05-22T22:42:13.606Z,33.20
2019-05-22T22:44:49.661Z,36.37
2019-05-22T22:47:24.943Z,30.77
2019-05-22T22:49:58.922Z,34.47
2019-05-22T22:52:30.790Z,34.13
2019-05-22T22:55:03.720Z,33.27
2019-05-22T22:57:38.570Z,35.27
2019-05-22T23:00:12.621Z,37.30
2019-05-22T23:02:45.292Z,33.67
2019-05-22T23:05:18.429Z,37.27
2019-05-22T23:07:51.940Z,38.20
2019-05-22T23:10:24.566Z,38.33
2019-05-22T23:12:58.462Z,37.10
2019-05-22T23:15:30.664Z,39.13
2019-05-22T23:18:06.703Z,38.50
2019-05-22T23:20:39.418Z,35.80
2019-05-22T23:23:11.190Z,41.10
2019-05-22T23:25:44.078Z,38.33
2019-05-22T23:28:33.644Z,40.27
2019-05-22T23:30:53.445Z,34.73
2019-05-22T23:33:26.928Z,32.53
2019-05-22T23:35:59.598Z,39.43
2019-05-22T23:38:33.741Z,35.43
2019-05-22T23:41:07.414Z,40.20
2019-05-22T23:44:00.975Z,39.23
2019-05-22T23:46:33.638Z,38.47
2019-05-22T23:49:08.102Z,36.63
2019-05-22T23:51:40.303Z,40.50
2019-05-22T23:54:15.154Z,39.80
2019-05-22T23:56:48.316Z,38.43
2019-05-22T23:59:23.537Z,35.17
